sensor_id;sensor_type;location;lat;lon;timestamp;P1;durP1;ratioP1;P2;durP2;ratioP2
3689;SDS011;1861;50.240;8.596;2023-03-20T00:01:59;1.53;;;1.30;;
3689;SDS011;1861;50.240;8.596;2023-03-20T00:04:28;1.30;;;1.20;;
3689;SDS011;1861;50.240;8.596;2023-03-20T00:06:56;2.17;;;1.20;;
3689;SDS011;1861;50.240;8.596;2023-03-20T00:09:24;1.57;;;1.40;;
3689;SDS011;1861;50.240;8.596;2023-03-20T00:11:53;1.40;;;1.30;;
3689;SDS011;1861;50.240;8.596;2023-03-20T00:14:22;6.07;;;1.70;;
3689;SDS011;1861;50.240;8.596;2023-03-20T00:16:51;2.70;;;1.30;;
3689;SDS011;1861;50.240;8.596;2023-03-20T00:19:20;1.37;;;1.27;;
3689;SDS011;1861;50.240;8.596;2023-03-20T00:21:50;2.50;;;0.93;;
3689;SDS011;1861;50.240;8.596;2023-03-20T00:24:19;1.70;;;1.30;;
3689;SDS011;1861;50.240;8.596;2023-03-20T00:26:47;1.73;;;1.47;;
3689;SDS011;1861;50.240;8.596;2023-03-20T00:29:19;1.37;;;1.10;;
3689;SDS011;1861;50.240;8.596;2023-03-20T00:31:49;1.53;;;1.30;;
3689;SDS011;1861;50.240;8.596;2023-03-20T00:34:18;1.37;;;1.17;;
3689;SDS011;1861;50.240;8.596;2023-03-20T00:36:48;1.20;;;1.10;;
3689;SDS011;1861;50.240;8.596;2023-03-20T00:39:17;1.30;;;1.20;;
3689;SDS011;1861;50.240;8.596;2023-03-20T00:41:46;1.30;;;1.20;;
3689;SDS011;1861;50.240;8.596;2023-03-20T00:44:21;2.50;;;1.27;;
3689;SDS011;1861;50.240;8.596;2023-03-20T00:46:53;3.93;;;1.20;;
3689;SDS011;1861;50.240;8.596;2023-03-20T00:49:24;1.50;;;1.40;;
3689;SDS011;1861;50.240;8.596;2023-03-20T00:51:54;1.63;;;1.50;;
3689;SDS011;1861;50.240;8.596;2023-03-20T00:54:23;2.47;;;1.30;;
3689;SDS011;1861;50.240;8.596;2023-03-20T00:56:53;1.63;;;1.43;;
3689;SDS011;1861;50.240;8.596;2023-03-20T00:59:27;1.63;;;1.47;;
3689;SDS011;1861;50.240;8.596;2023-03-20T01:01:57;1.50;;;1.30;;
3689;SDS011;1861;50.240;8.596;2023-03-20T01:04:30;2.13;;;1.50;;
3689;SDS011;1861;50.240;8.596;2023-03-20T01:07:03;2.37;;;1.83;;
3689;SDS011;1861;50.240;8.596;2023-03-20T01:09:31;2.43;;;1.73;;
3689;SDS011;1861;50.240;8.596;2023-03-20T01:12:00;2.20;;;1.60;;
3689;SDS011;1861;50.240;8.596;2023-03-20T01:14:31;2.20;;;1.37;;
3689;SDS011;1861;50.240;8.596;2023-03-20T01:16:59;4.13;;;1.60;;
3689;SDS011;1861;50.240;8.596;2023-03-20T01:19:27;2.10;;;1.90;;
3689;SDS011;1861;50.240;8.596;2023-03-20T01:21:55;1.90;;;1.60;;
3689;SDS011;1861;50.240;8.596;2023-03-20T01:24:23;1.53;;;1.33;;
3689;SDS011;1861;50.240;8.596;2023-03-20T01:26:51;3.17;;;2.47;;
3689;SDS011;1861;50.240;8.596;2023-03-20T01:29:20;2.77;;;1.90;;
3689;SDS011;1861;50.240;8.596;2023-03-20T01:31:52;2.47;;;2.03;;
3689;SDS011;1861;50.240;8.596;2023-03-20T01:34:23;7.57;;;2.67;;
3689;SDS011;1861;50.240;8.596;2023-03-20T01:36:54;2.73;;;2.20;;
3689;SDS011;1861;50.240;8.596;2023-03-20T01:39:26;4.60;;;3.50;;
3689;SDS011;1861;50.240;8.596;2023-03-20T01:41:58;4.43;;;3.37;;
3689;SDS011;1861;50.240;8.596;2023-03-20T01:44:30;4.00;;;3.10;;
3689;SDS011;1861;50.240;8.596;2023-03-20T01:47:02;8.27;;;4.33;;
3689;SDS011;1861;50.240;8.596;2023-03-20T01:52:44;10.97;;;4.97;;
3689;SDS011;1861;50.240;8.596;2023-03-20T01:55:14;7.97;;;4.07;;
3689;SDS011;1861;50.240;8.596;2023-03-20T01:57:47;6.97;;;3.97;;
3689;SDS011;1861;50.240;8.596;2023-03-20T02:00:17;6.63;;;4.60;;
3689;SDS011;1861;50.240;8.596;2023-03-20T02:02:48;10.50;;;5.93;;
3689;SDS011;1861;50.240;8.596;2023-03-20T02:05:39;4.97;;;3.90;;
3689;SDS011;1861;50.240;8.596;2023-03-20T02:08:10;8.23;;;3.70;;
3689;SDS011;1861;50.240;8.596;2023-03-20T02:10:46;6.43;;;4.90;;
3689;SDS011;1861;50.240;8.596;2023-03-20T02:13:27;5.70;;;4.00;;
3689;SDS011;1861;50.240;8.596;2023-03-20T02:15:59;6.80;;;4.00;;
3689;SDS011;1861;50.240;8.596;2023-03-20T02:18:50;5.40;;;4.40;;
3689;SDS011;1861;50.240;8.596;2023-03-20T02:24:47;4.80;;;3.73;;
3689;SDS011;1861;50.240;8.596;2023-03-20T02:27:43;5.93;;;3.60;;
3689;SDS011;1861;50.240;8.596;2023-03-20T02:30:36;4.30;;;3.77;;
3689;SDS011;1861;50.240;8.596;2023-03-20T02:33:30;4.00;;;3.60;;
3689;SDS011;1861;50.240;8.596;2023-03-20T02:36:22;7.70;;;3.93;;
3689;SDS011;1861;50.240;8.596;2023-03-20T02:39:23;5.70;;;4.20;;
3689;SDS011;1861;50.240;8.596;2023-03-20T02:42:06;4.27;;;3.60;;
3689;SDS011;1861;50.240;8.596;2023-03-20T02:44:42;5.47;;;3.67;;
3689;SDS011;1861;50.240;8.596;2023-03-20T02:47:16;7.83;;;3.90;;
3689;SDS011;1861;50.240;8.596;2023-03-20T02:49:52;8.77;;;4.40;;
3689;SDS011;1861;50.240;8.596;2023-03-20T02:52:30;5.37;;;4.10;;
3689;SDS011;1861;50.240;8.596;2023-03-20T02:55:07;6.87;;;3.67;;
3689;SDS011;1861;50.240;8.596;2023-03-20T02:57:43;6.70;;;3.80;;
3689;SDS011;1861;50.240;8.596;2023-03-20T03:00:21;6.70;;;4.03;;
3689;SDS011;1861;50.240;8.596;2023-03-20T03:02:56;10.20;;;5.47;;
3689;SDS011;1861;50.240;8.596;2023-03-20T03:05:32;6.43;;;4.90;;
3689;SDS011;1861;50.240;8.596;2023-03-20T03:08:05;9.00;;;4.20;;
3689;SDS011;1861;50.240;8.596;2023-03-20T03:10:38;7.93;;;4.83;;
3689;SDS011;1861;50.240;8.596;2023-03-20T03:13:11;11.70;;;5.13;;
3689;SDS011;1861;50.240;8.596;2023-03-20T03:15:44;7.40;;;4.90;;
3689;SDS011;1861;50.240;8.596;2023-03-20T03:18:16;7.67;;;5.17;;
3689;SDS011;1861;50.240;8.596;2023-03-20T03:20:48;9.20;;;5.10;;
3689;SDS011;1861;50.240;8.596;2023-03-20T03:23:24;9.73;;;5.80;;
3689;SDS011;1861;50.240;8.596;2023-03-20T03:25:57;9.87;;;5.00;;
3689;SDS011;1861;50.240;8.596;2023-03-20T03:28:28;8.20;;;5.53;;
3689;SDS011;1861;50.240;8.596;2023-03-20T03:31:04;9.10;;;4.97;;
3689;SDS011;1861;50.240;8.596;2023-03-20T03:33:35;9.33;;;5.83;;
3689;SDS011;1861;50.240;8.596;2023-03-20T03:36:08;9.53;;;6.00;;
3689;SDS011;1861;50.240;8.596;2023-03-20T03:38:44;8.33;;;5.87;;
3689;SDS011;1861;50.240;8.596;2023-03-20T03:41:23;6.83;;;5.37;;
3689;SDS011;1861;50.240;8.596;2023-03-20T03:43:59;18.40;;;5.93;;
3689;SDS011;1861;50.240;8.596;2023-03-20T03:46:38;9.80;;;6.60;;
3689;SDS011;1861;50.240;8.596;2023-03-20T03:49:12;11.87;;;6.40;;
3689;SDS011;1861;50.240;8.596;2023-03-20T03:51:44;10.17;;;6.30;;
3689;SDS011;1861;50.240;8.596;2023-03-20T03:54:17;20.00;;;8.70;;
3689;SDS011;1861;50.240;8.596;2023-03-20T03:57:17;18.70;;;8.70;;
3689;SDS011;1861;50.240;8.596;2023-03-20T03:59:51;10.90;;;6.50;;
3689;SDS011;1861;50.240;8.596;2023-03-20T04:02:20;9.23;;;5.97;;
3689;SDS011;1861;50.240;8.596;2023-03-20T04:04:50;17.30;;;9.77;;
3689;SDS011;1861;50.240;8.596;2023-03-20T04:07:20;13.40;;;8.13;;
3689;SDS011;1861;50.240;8.596;2023-03-20T04:09:48;13.80;;;8.23;;
3689;SDS011;1861;50.240;8.596;2023-03-20T04:12:29;15.70;;;8.50;;
3689;SDS011;1861;50.240;8.596;2023-03-20T04:15:00;17.30;;;8.90;;
3689;SDS011;1861;50.240;8.596;2023-03-20T04:17:31;20.87;;;9.67;;
3689;SDS011;1861;50.240;8.596;2023-03-20T04:19:59;30.57;;;11.80;;
3689;SDS011;1861;50.240;8.596;2023-03-20T04:22:28;39.73;;;14.87;;
3689;SDS011;1861;50.240;8.596;2023-03-20T04:25:03;32.63;;;14.33;;
3689;SDS011;1861;50.240;8.596;2023-03-20T04:27:34;34.20;;;15.20;;
3689;SDS011;1861;50.240;8.596;2023-03-20T04:30:10;31.60;;;15.17;;
3689;SDS011;1861;50.240;8.596;2023-03-20T04:32:57;34.57;;;14.57;;
3689;SDS011;1861;50.240;8.596;2023-03-20T04:35:49;36.70;;;15.40;;
3689;SDS011;1861;50.240;8.596;2023-03-20T04:38:18;32.80;;;14.93;;
3689;SDS011;1861;50.240;8.596;2023-03-20T04:40:47;29.10;;;13.53;;
3689;SDS011;1861;50.240;8.596;2023-03-20T04:43:17;36.00;;;14.80;;
3689;SDS011;1861;50.240;8.596;2023-03-20T04:45:45;32.63;;;14.80;;
3689;SDS011;1861;50.240;8.596;2023-03-20T04:48:13;33.60;;;14.30;;
3689;SDS011;1861;50.240;8.596;2023-03-20T04:50:41;31.40;;;14.37;;
3689;SDS011;1861;50.240;8.596;2023-03-20T04:53:12;34.50;;;14.13;;
3689;SDS011;1861;50.240;8.596;2023-03-20T04:55:41;39.50;;;15.83;;
3689;SDS011;1861;50.240;8.596;2023-03-20T04:58:11;34.03;;;14.50;;
3689;SDS011;1861;50.240;8.596;2023-03-20T05:00:40;30.83;;;13.80;;
3689;SDS011;1861;50.240;8.596;2023-03-20T05:03:09;28.17;;;12.77;;
3689;SDS011;1861;50.240;8.596;2023-03-20T05:05:38;29.80;;;13.60;;
3689;SDS011;1861;50.240;8.596;2023-03-20T05:08:07;26.77;;;12.53;;
3689;SDS011;1861;50.240;8.596;2023-03-20T05:10:36;27.13;;;13.30;;
3689;SDS011;1861;50.240;8.596;2023-03-20T05:13:16;28.27;;;13.00;;
3689;SDS011;1861;50.240;8.596;2023-03-20T05:16:02;21.70;;;10.57;;
3689;SDS011;1861;50.240;8.596;2023-03-20T05:18:42;23.60;;;11.23;;
3689;SDS011;1861;50.240;8.596;2023-03-20T05:21:36;20.60;;;10.27;;
3689;SDS011;1861;50.240;8.596;2023-03-20T05:24:10;25.03;;;10.17;;
3689;SDS011;1861;50.240;8.596;2023-03-20T05:26:49;19.17;;;9.10;;
3689;SDS011;1861;50.240;8.596;2023-03-20T05:29:35;19.20;;;9.13;;
3689;SDS011;1861;50.240;8.596;2023-03-20T05:32:05;18.83;;;8.87;;
3689;SDS011;1861;50.240;8.596;2023-03-20T05:34:56;20.30;;;9.20;;
3689;SDS011;1861;50.240;8.596;2023-03-20T05:37:33;19.10;;;9.60;;
3689;SDS011;1861;50.240;8.596;2023-03-20T05:40:11;18.83;;;9.97;;
3689;SDS011;1861;50.240;8.596;2023-03-20T05:43:11;22.07;;;9.07;;
3689;SDS011;1861;50.240;8.596;2023-03-20T05:46:08;22.07;;;10.03;;
3689;SDS011;1861;50.240;8.596;2023-03-20T05:48:56;24.20;;;10.87;;
3689;SDS011;1861;50.240;8.596;2023-03-20T05:51:42;20.63;;;10.90;;
3689;SDS011;1861;50.240;8.596;2023-03-20T05:54:37;19.77;;;9.53;;
3689;SDS011;1861;50.240;8.596;2023-03-20T05:57:15;19.87;;;10.23;;
3689;SDS011;1861;50.240;8.596;2023-03-20T06:00:04;20.57;;;9.57;;
3689;SDS011;1861;50.240;8.596;2023-03-20T06:02:48;20.00;;;9.57;;
3689;SDS011;1861;50.240;8.596;2023-03-20T06:05:39;18.90;;;9.30;;
3689;SDS011;1861;50.240;8.596;2023-03-20T06:08:07;17.17;;;8.63;;
3689;SDS011;1861;50.240;8.596;2023-03-20T06:10:35;23.13;;;10.53;;
3689;SDS011;1861;50.240;8.596;2023-03-20T06:13:04;22.30;;;10.10;;
3689;SDS011;1861;50.240;8.596;2023-03-20T06:15:32;18.03;;;9.30;;
3689;SDS011;1861;50.240;8.596;2023-03-20T06:18:10;16.03;;;8.73;;
3689;SDS011;1861;50.240;8.596;2023-03-20T06:20:40;16.47;;;9.30;;
3689;SDS011;1861;50.240;8.596;2023-03-20T06:23:08;18.50;;;9.57;;
3689;SDS011;1861;50.240;8.596;2023-03-20T06:25:36;19.63;;;8.40;;
3689;SDS011;1861;50.240;8.596;2023-03-20T06:28:05;16.90;;;8.83;;
3689;SDS011;1861;50.240;8.596;2023-03-20T06:30:34;17.73;;;8.33;;
3689;SDS011;1861;50.240;8.596;2023-03-20T06:33:02;18.97;;;9.03;;
3689;SDS011;1861;50.240;8.596;2023-03-20T06:35:42;18.67;;;9.27;;
3689;SDS011;1861;50.240;8.596;2023-03-20T06:38:12;15.43;;;8.60;;
3689;SDS011;1861;50.240;8.596;2023-03-20T06:40:40;16.20;;;8.83;;
3689;SDS011;1861;50.240;8.596;2023-03-20T06:43:11;18.33;;;8.50;;
3689;SDS011;1861;50.240;8.596;2023-03-20T06:45:45;18.93;;;9.20;;
3689;SDS011;1861;50.240;8.596;2023-03-20T06:48:20;18.50;;;9.77;;
3689;SDS011;1861;50.240;8.596;2023-03-20T06:50:50;23.83;;;10.97;;
3689;SDS011;1861;50.240;8.596;2023-03-20T06:53:22;20.80;;;9.60;;
3689;SDS011;1861;50.240;8.596;2023-03-20T06:55:57;24.40;;;11.70;;
3689;SDS011;1861;50.240;8.596;2023-03-20T06:58:25;21.03;;;10.50;;
3689;SDS011;1861;50.240;8.596;2023-03-20T07:00:54;22.30;;;11.40;;
3689;SDS011;1861;50.240;8.596;2023-03-20T07:03:23;23.67;;;11.27;;
3689;SDS011;1861;50.240;8.596;2023-03-20T07:05:53;23.80;;;11.27;;
3689;SDS011;1861;50.240;8.596;2023-03-20T07:08:21;24.27;;;10.80;;
3689;SDS011;1861;50.240;8.596;2023-03-20T07:10:50;21.20;;;9.10;;
3689;SDS011;1861;50.240;8.596;2023-03-20T07:13:19;16.67;;;9.37;;
3689;SDS011;1861;50.240;8.596;2023-03-20T07:15:47;17.67;;;8.07;;
3689;SDS011;1861;50.240;8.596;2023-03-20T07:18:33;15.23;;;8.00;;
3689;SDS011;1861;50.240;8.596;2023-03-20T07:21:03;15.90;;;7.60;;
3689;SDS011;1861;50.240;8.596;2023-03-20T07:23:33;16.10;;;7.97;;
3689;SDS011;1861;50.240;8.596;2023-03-20T07:26:02;16.80;;;8.43;;
3689;SDS011;1861;50.240;8.596;2023-03-20T07:28:31;19.00;;;8.87;;
3689;SDS011;1861;50.240;8.596;2023-03-20T07:31:17;17.30;;;8.20;;
3689;SDS011;1861;50.240;8.596;2023-03-20T07:33:52;16.13;;;7.90;;
3689;SDS011;1861;50.240;8.596;2023-03-20T07:36:22;16.07;;;8.83;;
3689;SDS011;1861;50.240;8.596;2023-03-20T07:38:50;18.07;;;9.03;;
3689;SDS011;1861;50.240;8.596;2023-03-20T07:41:18;17.90;;;9.50;;
3689;SDS011;1861;50.240;8.596;2023-03-20T07:43:57;17.83;;;9.60;;
3689;SDS011;1861;50.240;8.596;2023-03-20T07:46:38;14.93;;;8.50;;
3689;SDS011;1861;50.240;8.596;2023-03-20T07:49:06;15.83;;;8.70;;
3689;SDS011;1861;50.240;8.596;2023-03-20T07:51:35;18.30;;;7.63;;
3689;SDS011;1861;50.240;8.596;2023-03-20T07:54:03;16.57;;;8.77;;
3689;SDS011;1861;50.240;8.596;2023-03-20T07:56:32;29.27;;;9.83;;
3689;SDS011;1861;50.240;8.596;2023-03-20T07:59:00;16.70;;;9.43;;
3689;SDS011;1861;50.240;8.596;2023-03-20T08:01:28;18.90;;;9.43;;
3689;SDS011;1861;50.240;8.596;2023-03-20T08:03:56;17.83;;;8.97;;
3689;SDS011;1861;50.240;8.596;2023-03-20T08:06:25;22.20;;;8.70;;
3689;SDS011;1861;50.240;8.596;2023-03-20T08:08:54;13.90;;;8.00;;
3689;SDS011;1861;50.240;8.596;2023-03-20T08:11:22;20.40;;;10.37;;
3689;SDS011;1861;50.240;8.596;2023-03-20T08:13:51;21.93;;;10.30;;
3689;SDS011;1861;50.240;8.596;2023-03-20T08:16:19;15.83;;;8.23;;
3689;SDS011;1861;50.240;8.596;2023-03-20T08:18:47;16.90;;;9.60;;
3689;SDS011;1861;50.240;8.596;2023-03-20T08:21:15;19.00;;;9.57;;
3689;SDS011;1861;50.240;8.596;2023-03-20T08:23:43;20.53;;;9.20;;
3689;SDS011;1861;50.240;8.596;2023-03-20T08:26:13;18.20;;;10.27;;
3689;SDS011;1861;50.240;8.596;2023-03-20T08:28:41;18.10;;;8.83;;
3689;SDS011;1861;50.240;8.596;2023-03-20T08:31:13;18.33;;;9.30;;
3689;SDS011;1861;50.240;8.596;2023-03-20T08:33:43;17.27;;;9.27;;
3689;SDS011;1861;50.240;8.596;2023-03-20T08:36:12;25.40;;;9.97;;
3689;SDS011;1861;50.240;8.596;2023-03-20T08:38:41;24.30;;;11.27;;
3689;SDS011;1861;50.240;8.596;2023-03-20T08:41:09;26.10;;;10.90;;
3689;SDS011;1861;50.240;8.596;2023-03-20T08:43:39;21.13;;;9.87;;
3689;SDS011;1861;50.240;8.596;2023-03-20T08:46:07;20.80;;;10.20;;
3689;SDS011;1861;50.240;8.596;2023-03-20T08:48:36;22.30;;;10.23;;
3689;SDS011;1861;50.240;8.596;2023-03-20T08:51:04;19.53;;;10.40;;
3689;SDS011;1861;50.240;8.596;2023-03-20T08:53:33;20.70;;;11.07;;
3689;SDS011;1861;50.240;8.596;2023-03-20T08:56:02;20.23;;;10.30;;
3689;SDS011;1861;50.240;8.596;2023-03-20T08:58:31;21.37;;;10.53;;
3689;SDS011;1861;50.240;8.596;2023-03-20T09:01:03;20.10;;;9.97;;
3689;SDS011;1861;50.240;8.596;2023-03-20T09:03:32;21.47;;;10.87;;
3689;SDS011;1861;50.240;8.596;2023-03-20T09:06:00;25.70;;;11.67;;
3689;SDS011;1861;50.240;8.596;2023-03-20T09:08:30;24.77;;;11.63;;
3689;SDS011;1861;50.240;8.596;2023-03-20T09:10:59;23.63;;;10.97;;
3689;SDS011;1861;50.240;8.596;2023-03-20T09:13:27;30.83;;;13.83;;
3689;SDS011;1861;50.240;8.596;2023-03-20T09:15:55;26.40;;;11.87;;
3689;SDS011;1861;50.240;8.596;2023-03-20T09:18:25;24.80;;;11.83;;
3689;SDS011;1861;50.240;8.596;2023-03-20T09:20:53;24.57;;;12.10;;
3689;SDS011;1861;50.240;8.596;2023-03-20T09:23:22;30.50;;;12.17;;
3689;SDS011;1861;50.240;8.596;2023-03-20T09:25:50;22.33;;;11.60;;
3689;SDS011;1861;50.240;8.596;2023-03-20T09:28:18;26.40;;;11.70;;
3689;SDS011;1861;50.240;8.596;2023-03-20T09:30:47;25.17;;;11.37;;
3689;SDS011;1861;50.240;8.596;2023-03-20T09:33:15;27.47;;;13.07;;
3689;SDS011;1861;50.240;8.596;2023-03-20T09:35:45;28.93;;;12.23;;
3689;SDS011;1861;50.240;8.596;2023-03-20T09:38:13;25.87;;;11.50;;
3689;SDS011;1861;50.240;8.596;2023-03-20T09:40:51;32.40;;;12.60;;
3689;SDS011;1861;50.240;8.596;2023-03-20T09:43:26;31.00;;;11.17;;
3689;SDS011;1861;50.240;8.596;2023-03-20T09:46:06;23.37;;;10.90;;
3689;SDS011;1861;50.240;8.596;2023-03-20T09:48:44;26.30;;;11.50;;
3689;SDS011;1861;50.240;8.596;2023-03-20T09:51:23;21.63;;;10.50;;
3689;SDS011;1861;50.240;8.596;2023-03-20T09:53:58;24.83;;;10.27;;
3689;SDS011;1861;50.240;8.596;2023-03-20T09:56:30;24.17;;;11.57;;
3689;SDS011;1861;50.240;8.596;2023-03-20T09:59:00;20.17;;;9.93;;
3689;SDS011;1861;50.240;8.596;2023-03-20T10:01:30;20.13;;;10.17;;
3689;SDS011;1861;50.240;8.596;2023-03-20T10:04:05;22.10;;;9.77;;
3689;SDS011;1861;50.240;8.596;2023-03-20T10:06:37;20.97;;;9.30;;
3689;SDS011;1861;50.240;8.596;2023-03-20T10:09:09;19.60;;;9.80;;
3689;SDS011;1861;50.240;8.596;2023-03-20T10:11:54;16.37;;;7.13;;
3689;SDS011;1861;50.240;8.596;2023-03-20T10:14:32;16.03;;;8.60;;
3689;SDS011;1861;50.240;8.596;2023-03-20T10:17:16;17.13;;;7.73;;
3689;SDS011;1861;50.240;8.596;2023-03-20T10:19:56;12.97;;;6.37;;
3689;SDS011;1861;50.240;8.596;2023-03-20T10:22:28;10.00;;;4.40;;
3689;SDS011;1861;50.240;8.596;2023-03-20T10:25:02;10.77;;;3.97;;
3689;SDS011;1861;50.240;8.596;2023-03-20T10:27:35;7.13;;;3.93;;
3689;SDS011;1861;50.240;8.596;2023-03-20T10:30:12;5.87;;;3.60;;
3689;SDS011;1861;50.240;8.596;2023-03-20T10:32:56;6.50;;;3.60;;
3689;SDS011;1861;50.240;8.596;2023-03-20T10:35:34;7.47;;;3.27;;
3689;SDS011;1861;50.240;8.596;2023-03-20T10:38:11;7.73;;;3.67;;
3689;SDS011;1861;50.240;8.596;2023-03-20T10:40:45;9.67;;;3.30;;
3689;SDS011;1861;50.240;8.596;2023-03-20T10:43:15;4.23;;;2.30;;
3689;SDS011;1861;50.240;8.596;2023-03-20T10:45:45;5.10;;;2.63;;
3689;SDS011;1861;50.240;8.596;2023-03-20T10:48:19;6.70;;;3.63;;
3689;SDS011;1861;50.240;8.596;2023-03-20T10:50:52;5.33;;;3.33;;
3689;SDS011;1861;50.240;8.596;2023-03-20T10:53:28;5.40;;;3.00;;
3689;SDS011;1861;50.240;8.596;2023-03-20T10:55:59;4.60;;;2.90;;
3689;SDS011;1861;50.240;8.596;2023-03-20T10:58:32;3.87;;;2.70;;
3689;SDS011;1861;50.240;8.596;2023-03-20T11:01:05;3.53;;;2.27;;
3689;SDS011;1861;50.240;8.596;2023-03-20T11:03:33;4.57;;;2.73;;
3689;SDS011;1861;50.240;8.596;2023-03-20T11:06:05;4.10;;;2.33;;
3689;SDS011;1861;50.240;8.596;2023-03-20T11:08:41;7.10;;;3.37;;
3689;SDS011;1861;50.240;8.596;2023-03-20T11:11:13;7.93;;;3.47;;
3689;SDS011;1861;50.240;8.596;2023-03-20T11:13:49;9.20;;;4.53;;
3689;SDS011;1861;50.240;8.596;2023-03-20T11:16:19;3.97;;;2.87;;
3689;SDS011;1861;50.240;8.596;2023-03-20T11:18:49;7.17;;;3.90;;
3689;SDS011;1861;50.240;8.596;2023-03-20T11:21:21;7.10;;;4.00;;
3689;SDS011;1861;50.240;8.596;2023-03-20T11:23:52;8.17;;;4.33;;
3689;SDS011;1861;50.240;8.596;2023-03-20T11:26:27;6.90;;;3.50;;
3689;SDS011;1861;50.240;8.596;2023-03-20T11:29:00;6.10;;;3.83;;
3689;SDS011;1861;50.240;8.596;2023-03-20T11:31:32;5.67;;;2.90;;
3689;SDS011;1861;50.240;8.596;2023-03-20T11:34:09;4.03;;;2.73;;
3689;SDS011;1861;50.240;8.596;2023-03-20T11:36:52;4.13;;;2.93;;
3689;SDS011;1861;50.240;8.596;2023-03-20T11:39:36;4.53;;;2.87;;
3689;SDS011;1861;50.240;8.596;2023-03-20T11:42:20;5.57;;;3.03;;
3689;SDS011;1861;50.240;8.596;2023-03-20T11:44:57;8.30;;;4.30;;
3689;SDS011;1861;50.240;8.596;2023-03-20T11:47:27;4.30;;;2.70;;
3689;SDS011;1861;50.240;8.596;2023-03-20T11:50:00;6.83;;;2.80;;
3689;SDS011;1861;50.240;8.596;2023-03-20T11:52:31;6.50;;;2.90;;
3689;SDS011;1861;50.240;8.596;2023-03-20T11:55:03;5.70;;;3.10;;
3689;SDS011;1861;50.240;8.596;2023-03-20T11:57:33;6.70;;;3.20;;
3689;SDS011;1861;50.240;8.596;2023-03-20T12:00:05;3.67;;;2.70;;
3689;SDS011;1861;50.240;8.596;2023-03-20T12:02:42;4.53;;;2.90;;
3689;SDS011;1861;50.240;8.596;2023-03-20T12:05:19;3.83;;;2.53;;
3689;SDS011;1861;50.240;8.596;2023-03-20T12:07:55;3.47;;;2.37;;
3689;SDS011;1861;50.240;8.596;2023-03-20T12:10:29;9.17;;;3.00;;
3689;SDS011;1861;50.240;8.596;2023-03-20T12:13:03;4.07;;;2.27;;
3689;SDS011;1861;50.240;8.596;2023-03-20T12:15:40;5.07;;;2.50;;
3689;SDS011;1861;50.240;8.596;2023-03-20T12:18:23;7.57;;;2.67;;
3689;SDS011;1861;50.240;8.596;2023-03-20T12:21:01;6.17;;;3.70;;
3689;SDS011;1861;50.240;8.596;2023-03-20T12:23:34;4.60;;;2.70;;
3689;SDS011;1861;50.240;8.596;2023-03-20T12:26:10;3.33;;;2.37;;
3689;SDS011;1861;50.240;8.596;2023-03-20T12:28:41;5.23;;;2.40;;
3689;SDS011;1861;50.240;8.596;2023-03-20T12:31:16;8.60;;;3.23;;
3689;SDS011;1861;50.240;8.596;2023-03-20T12:33:51;5.83;;;2.67;;
3689;SDS011;1861;50.240;8.596;2023-03-20T12:36:24;4.43;;;2.70;;
3689;SDS011;1861;50.240;8.596;2023-03-20T12:38:57;3.30;;;1.80;;
3689;SDS011;1861;50.240;8.596;2023-03-20T12:41:28;2.00;;;1.80;;
3689;SDS011;1861;50.240;8.596;2023-03-20T12:44:07;3.33;;;1.87;;
3689;SDS011;1861;50.240;8.596;2023-03-20T12:46:47;3.90;;;2.03;;
3689;SDS011;1861;50.240;8.596;2023-03-20T12:49:26;3.40;;;1.40;;
3689;SDS011;1861;50.240;8.596;2023-03-20T12:52:04;2.40;;;1.67;;
3689;SDS011;1861;50.240;8.596;2023-03-20T12:54:42;2.10;;;1.20;;
3689;SDS011;1861;50.240;8.596;2023-03-20T12:57:35;1.50;;;1.40;;
3689;SDS011;1861;50.240;8.596;2023-03-20T13:00:09;1.83;;;1.23;;
3689;SDS011;1861;50.240;8.596;2023-03-20T13:02:49;1.37;;;1.20;;
3689;SDS011;1861;50.240;8.596;2023-03-20T13:05:32;1.80;;;1.40;;
3689;SDS011;1861;50.240;8.596;2023-03-20T13:08:11;2.23;;;1.23;;
3689;SDS011;1861;50.240;8.596;2023-03-20T13:10:59;1.20;;;1.10;;
3689;SDS011;1861;50.240;8.596;2023-03-20T13:13:40;8.10;;;1.77;;
3689;SDS011;1861;50.240;8.596;2023-03-20T13:16:16;2.60;;;1.30;;
3689;SDS011;1861;50.240;8.596;2023-03-20T13:18:53;3.33;;;1.20;;
3689;SDS011;1861;50.240;8.596;2023-03-20T13:21:29;1.33;;;1.10;;
3689;SDS011;1861;50.240;8.596;2023-03-20T13:24:06;1.27;;;1.10;;
3689;SDS011;1861;50.240;8.596;2023-03-20T13:26:47;1.70;;;1.07;;
3689;SDS011;1861;50.240;8.596;2023-03-20T13:29:25;2.37;;;1.07;;
3689;SDS011;1861;50.240;8.596;2023-03-20T13:32:02;0.90;;;0.70;;
3689;SDS011;1861;50.240;8.596;2023-03-20T13:34:48;1.43;;;0.83;;
3689;SDS011;1861;50.240;8.596;2023-03-20T13:37:27;0.87;;;0.80;;
3689;SDS011;1861;50.240;8.596;2023-03-20T13:40:05;0.97;;;0.87;;
3689;SDS011;1861;50.240;8.596;2023-03-20T13:42:41;1.10;;;0.73;;
3689;SDS011;1861;50.240;8.596;2023-03-20T13:45:20;1.97;;;0.63;;
3689;SDS011;1861;50.240;8.596;2023-03-20T13:47:57;3.03;;;0.93;;
3689;SDS011;1861;50.240;8.596;2023-03-20T13:50:32;1.10;;;0.83;;
3689;SDS011;1861;50.240;8.596;2023-03-20T13:53:08;1.47;;;1.00;;
3689;SDS011;1861;50.240;8.596;2023-03-20T13:55:50;2.23;;;1.10;;
3689;SDS011;1861;50.240;8.596;2023-03-20T13:58:26;1.30;;;1.20;;
3689;SDS011;1861;50.240;8.596;2023-03-20T14:01:17;1.90;;;1.07;;
3689;SDS011;1861;50.240;8.596;2023-03-20T14:03:52;1.90;;;1.33;;
3689;SDS011;1861;50.240;8.596;2023-03-20T14:09:28;2.67;;;1.20;;
3689;SDS011;1861;50.240;8.596;2023-03-20T14:11:59;2.13;;;1.30;;
3689;SDS011;1861;50.240;8.596;2023-03-20T14:14:38;1.73;;;1.30;;
3689;SDS011;1861;50.240;8.596;2023-03-20T14:17:12;1.07;;;0.90;;
3689;SDS011;1861;50.240;8.596;2023-03-20T14:19:43;1.50;;;1.20;;
3689;SDS011;1861;50.240;8.596;2023-03-20T14:22:16;2.10;;;1.50;;
3689;SDS011;1861;50.240;8.596;2023-03-20T14:24:49;4.50;;;1.70;;
3689;SDS011;1861;50.240;8.596;2023-03-20T14:27:20;3.00;;;1.87;;
3689;SDS011;1861;50.240;8.596;2023-03-20T14:33:22;2.83;;;1.60;;
3689;SDS011;1861;50.240;8.596;2023-03-20T14:38:43;2.43;;;1.57;;
3689;SDS011;1861;50.240;8.596;2023-03-20T14:41:21;3.20;;;1.97;;
3689;SDS011;1861;50.240;8.596;2023-03-20T14:43:55;3.50;;;1.73;;
3689;SDS011;1861;50.240;8.596;2023-03-20T14:46:32;3.63;;;1.97;;
3689;SDS011;1861;50.240;8.596;2023-03-20T14:49:21;2.23;;;1.60;;
3689;SDS011;1861;50.240;8.596;2023-03-20T14:52:03;3.80;;;1.73;;
3689;SDS011;1861;50.240;8.596;2023-03-20T14:54:50;1.50;;;1.40;;
3689;SDS011;1861;50.240;8.596;2023-03-20T14:57:25;2.83;;;1.60;;
3689;SDS011;1861;50.240;8.596;2023-03-20T15:00:14;2.17;;;1.40;;
3689;SDS011;1861;50.240;8.596;2023-03-20T15:02:45;2.43;;;1.70;;
3689;SDS011;1861;50.240;8.596;2023-03-20T15:05:23;2.13;;;1.60;;
3689;SDS011;1861;50.240;8.596;2023-03-20T15:07:54;5.07;;;2.00;;
3689;SDS011;1861;50.240;8.596;2023-03-20T15:10:24;2.17;;;1.60;;
3689;SDS011;1861;50.240;8.596;2023-03-20T15:12:52;5.87;;;1.83;;
3689;SDS011;1861;50.240;8.596;2023-03-20T15:15:24;2.40;;;1.90;;
3689;SDS011;1861;50.240;8.596;2023-03-20T15:17:54;2.23;;;1.40;;
3689;SDS011;1861;50.240;8.596;2023-03-20T15:20:24;5.00;;;1.60;;
3689;SDS011;1861;50.240;8.596;2023-03-20T15:22:55;1.13;;;1.03;;
3689;SDS011;1861;50.240;8.596;2023-03-20T15:25:27;1.17;;;0.77;;
3689;SDS011;1861;50.240;8.596;2023-03-20T15:27:57;1.40;;;1.10;;
3689;SDS011;1861;50.240;8.596;2023-03-20T15:30:26;1.00;;;0.80;;
3689;SDS011;1861;50.240;8.596;2023-03-20T15:32:57;0.73;;;0.60;;
3689;SDS011;1861;50.240;8.596;2023-03-20T15:35:27;1.27;;;0.80;;
3689;SDS011;1861;50.240;8.596;2023-03-20T15:37:55;0.97;;;0.90;;
3689;SDS011;1861;50.240;8.596;2023-03-20T15:40:31;1.10;;;0.80;;
3689;SDS011;1861;50.240;8.596;2023-03-20T15:43:16;1.83;;;1.13;;
3689;SDS011;1861;50.240;8.596;2023-03-20T15:45:47;1.30;;;0.80;;
3689;SDS011;1861;50.240;8.596;2023-03-20T15:48:16;2.10;;;1.00;;
3689;SDS011;1861;50.240;8.596;2023-03-20T15:50:48;1.23;;;0.87;;
3689;SDS011;1861;50.240;8.596;2023-03-20T15:53:20;0.80;;;0.80;;
3689;SDS011;1861;50.240;8.596;2023-03-20T15:55:56;1.60;;;1.10;;
3689;SDS011;1861;50.240;8.596;2023-03-20T15:58:43;2.10;;;1.10;;
3689;SDS011;1861;50.240;8.596;2023-03-20T16:01:14;1.80;;;1.03;;
3689;SDS011;1861;50.240;8.596;2023-03-20T16:03:45;1.07;;;0.93;;
3689;SDS011;1861;50.240;8.596;2023-03-20T16:06:16;1.80;;;0.90;;